Terminal Aerodrome Forecast
Issued by NWS Charleston, WV

Current Version | Previous Version | Graphics & Text | Print | Product List | Glossary On
Versions: 1 2 3 4 5 6 7 8 9 10 11 12 13 14 15 16 17 18 19 20 21 22 23 24 25
000
FTUS41 KRLX 270546
TAFEKN
TAF
KEKN 270546Z 2706/2806 16004KT 6SM BR BKN090
      TEMPO 2706/2708 2SM BR SCT003
     FM270800 17006KT 3SM SHRA BR VCTS OVC070CB
     FM272200 21007KT P6SM SHRA VCTS BKN025CB
     FM280100 22007KT P6SM BKN040
     FM280300 28006KT P6SM BKN015=

USA.gov is the U.S. government's official web portal to all federal, state and local government web resources and services.